createdAt,value
2022-08-09T00:00:01.009Z,5.05
2022-08-09T00:02:34.659Z,4.45
2022-08-09T00:06:18.225Z,4.72
2022-08-09T00:07:55.771Z,4.05
2022-08-09T00:10:29.161Z,4.35
2022-08-09T00:12:59.120Z,4.72
2022-08-09T00:15:57.932Z,4.22
2022-08-09T00:18:17.858Z,6.80
2022-08-09T00:20:50.546Z,6.95
2022-08-09T00:23:54.805Z,4.30
2022-08-09T00:26:10.977Z,6.78
2022-08-09T00:28:41.244Z,6.55
2022-08-09T00:31:57.467Z,6.55
2022-08-09T00:33:59.485Z,4.18
2022-08-09T00:36:32.624Z,5.18
2022-08-09T00:39:01.806Z,5.20
2022-08-09T00:44:15.772Z,5.95
2022-08-09T00:44:26.682Z,5.88
2022-08-09T00:47:05.619Z,6.07
2022-08-09T00:49:36.658Z,4.63
2022-08-09T00:52:15.893Z,3.60
2022-08-09T00:54:46.281Z,5.03
2022-08-09T00:57:24.702Z,4.45
2022-08-09T01:00:02.965Z,3.85
2022-08-09T01:02:35.146Z,5.28
2022-08-09T01:05:14.202Z,4.05
2022-08-09T01:08:00.321Z,4.63
2022-08-09T01:10:38.453Z,4.32
2022-08-09T01:13:18.828Z,4.40
2022-08-09T01:15:55.730Z,4.82
2022-08-09T01:18:31.488Z,4.65
2022-08-09T01:21:17.607Z,6.53
2022-08-09T01:24:01.780Z,3.30
2022-08-09T01:26:46.209Z,4.40
2022-08-09T01:29:17.548Z,3.83
2022-08-09T01:32:30.059Z,6.93
2022-08-09T01:34:39.813Z,3.92
2022-08-09T01:37:12.246Z,5.82
2022-08-09T01:39:44.055Z,3.80
2022-08-09T01:42:15.144Z,4.47
2022-08-09T01:44:44.576Z,4.85
2022-08-09T01:47:17.434Z,6.47
2022-08-09T01:49:50.967Z,3.45
2022-08-09T01:52:26.141Z,4.75
2022-08-09T01:54:58.886Z,3.25
2022-08-09T01:57:40.225Z,5.22
2022-08-09T02:00:34.506Z,4.40
2022-08-09T02:03:13.726Z,3.47
2022-08-09T02:06:03.878Z,5.18
2022-08-09T02:08:57.301Z,3.85
2022-08-09T02:11:24.142Z,5.30
2022-08-09T02:14:26.593Z,5.05
2022-08-09T02:17:14.724Z,5.85
2022-08-09T02:19:45.812Z,4.83
2022-08-09T02:22:31.485Z,3.92
2022-08-09T02:27:57.622Z,4.95
2022-08-09T02:30:54.963Z,4.03
2022-08-09T02:33:58.377Z,4.95
2022-08-09T02:36:31.480Z,4.00
2022-08-09T02:39:04.850Z,6.18
2022-08-09T02:41:40.148Z,3.47
2022-08-09T02:44:29.473Z,4.15
2022-08-09T02:47:06.881Z,4.15
2022-08-09T02:49:44.762Z,3.95
2022-08-09T02:52:16.546Z,3.60
2022-08-09T02:54:54.551Z,3.63
2022-08-09T02:57:25.709Z,3.00
2022-08-09T03:00:20.722Z,2.85
2022-08-09T03:02:59.885Z,2.60
2022-08-09T03:05:34.694Z,3.95
2022-08-09T03:08:06.602Z,3.85
2022-08-09T03:10:38.026Z,3.00
2022-08-09T03:13:09.951Z,3.17
2022-08-09T03:16:06.070Z,3.47
2022-08-09T03:18:31.680Z,2.83
2022-08-09T03:21:02.145Z,3.47
2022-08-09T03:23:31.364Z,3.30
2022-08-09T03:26:03.677Z,6.85
2022-08-09T03:28:36.215Z,4.50
2022-08-09T03:31:10.214Z,3.72
2022-08-09T03:33:54.302Z,3.47
2022-08-09T03:36:27.832Z,3.50
2022-08-09T03:38:57.231Z,2.60
2022-08-09T03:41:30.251Z,5.55
2022-08-09T03:44:15.522Z,4.85
2022-08-09T03:46:45.014Z,6.38
2022-08-09T03:49:19.382Z,6.60
2022-08-09T03:52:00.086Z,4.33
2022-08-09T03:54:34.421Z,3.47
2022-08-09T03:57:18.403Z,4.28
2022-08-09T03:59:54.983Z,3.85
2022-08-09T04:02:28.393Z,3.13
2022-08-09T04:05:01.324Z,4.90
2022-08-09T04:07:53.214Z,3.70
2022-08-09T04:10:28.851Z,4.10
2022-08-09T04:13:00.690Z,4.65
2022-08-09T04:16:17.303Z,3.55
2022-08-09T04:18:21.657Z,3.22
2022-08-09T04:20:52.373Z,4.30
2022-08-09T04:23:23.333Z,5.50
2022-08-09T04:25:54.345Z,3.95
2022-08-09T04:28:34.121Z,4.45
2022-08-09T04:31:09.046Z,3.92
2022-08-09T04:33:47.460Z,4.82
2022-08-09T04:36:26.287Z,4.88
2022-08-09T04:38:56.082Z,4.30
2022-08-09T04:41:32.819Z,4.68
2022-08-09T04:44:05.800Z,6.03
2022-08-09T04:46:59.841Z,3.22
2022-08-09T04:49:52.325Z,3.22
2022-08-09T04:52:26.804Z,4.97
2022-08-09T04:55:04.471Z,4.78
2022-08-09T04:57:54.277Z,4.57
2022-08-09T05:00:25.605Z,4.20
2022-08-09T05:03:13.368Z,2.97
2022-08-09T05:05:52.504Z,4.88
2022-08-09T05:08:35.007Z,4.57
2022-08-09T05:11:06.917Z,9.45
2022-08-09T05:13:54.905Z,4.18
2022-08-09T05:16:31.539Z,5.05
2022-08-09T05:19:02.833Z,3.08
2022-08-09T05:21:36.530Z,5.32
2022-08-09T05:24:17.323Z,3.58
2022-08-09T05:26:47.823Z,3.63
2022-08-09T05:29:31.510Z,5.35
2022-08-09T05:32:06.867Z,3.90
2022-08-09T05:34:42.860Z,2.60
2022-08-09T05:37:23.587Z,4.55
2022-08-09T05:39:59.442Z,4.18
2022-08-09T05:42:29.866Z,3.67
2022-08-09T05:45:02.841Z,2.50
2022-08-09T05:47:35.231Z,3.50
2022-08-09T05:50:25.593Z,3.88
2022-08-09T05:53:21.433Z,2.95
2022-08-09T05:58:57.846Z,2.72
2022-08-09T06:01:34.228Z,3.17
2022-08-09T06:04:12.336Z,4.70
2022-08-09T06:06:49.743Z,2.72
2022-08-09T06:09:41.199Z,5.65
2022-08-09T06:12:17.224Z,5.40
2022-08-09T06:14:53.201Z,3.10
2022-08-09T06:20:31.393Z,3.58
2022-08-09T06:23:03.339Z,6.70
2022-08-09T06:25:32.467Z,4.05
2022-08-09T06:28:05.636Z,3.33
2022-08-09T06:30:34.832Z,5.63
2022-08-09T06:33:41.022Z,4.38
2022-08-09T06:36:11.896Z,3.53
2022-08-09T06:38:50.115Z,5.38
2022-08-09T06:41:20.605Z,6.20
2022-08-09T06:55:23.107Z,3.58
2022-08-09T06:58:01.524Z,5.65
2022-08-09T07:00:51.877Z,8.52
2022-08-09T07:03:28.006Z,5.88
2022-08-09T07:06:03.642Z,5.78
2022-08-09T07:08:37.332Z,5.28
2022-08-09T07:11:08.655Z,4.70
2022-08-09T07:14:03.973Z,4.93
2022-08-09T07:16:43.424Z,5.18
2022-08-09T07:19:22.902Z,6.53
2022-08-09T07:21:55.641Z,3.47
2022-08-09T07:24:31.404Z,8.27
2022-08-09T07:27:03.119Z,4.63
2022-08-09T07:29:38.004Z,6.25
2022-08-09T07:32:13.323Z,5.25
2022-08-09T07:34:42.454Z,5.90
2022-08-09T07:37:15.751Z,2.75
2022-08-09T07:39:44.751Z,2.97
2022-08-09T07:42:15.657Z,5.22
2022-08-09T07:44:51.769Z,5.55
2022-08-09T07:47:26.500Z,4.07
2022-08-09T07:50:08.151Z,3.88
2022-08-09T08:01:52.917Z,2.38
2022-08-09T08:04:31.614Z,3.58
2022-08-09T08:07:15.597Z,3.25
2022-08-09T08:10:07.921Z,3.65
2022-08-09T08:12:45.158Z,4.75
2022-08-09T08:15:17.747Z,3.08
2022-08-09T08:17:53.790Z,3.28
2022-08-09T08:20:32.266Z,12.90
2022-08-09T08:23:16.176Z,4.72
2022-08-09T08:25:49.739Z,4.88
2022-08-09T08:28:25.916Z,4.22
2022-08-09T08:31:10.432Z,4.82
2022-08-09T08:33:52.683Z,6.07
2022-08-09T08:36:28.848Z,3.20
2022-08-09T08:38:58.763Z,3.83
2022-08-09T08:41:50.415Z,3.90
2022-08-09T08:44:26.854Z,3.92
2022-08-09T08:47:12.280Z,4.03
2022-08-09T08:49:47.823Z,3.40
2022-08-09T08:55:13.565Z,4.75
2022-08-09T08:57:43.979Z,3.58
2022-08-09T09:00:30.451Z,6.22
2022-08-09T09:03:08.720Z,6.03
2022-08-09T09:05:58.346Z,4.05
2022-08-09T09:08:38.042Z,4.10
2022-08-09T09:11:17.822Z,2.72
2022-08-09T09:13:58.669Z,3.47
2022-08-09T09:16:34.356Z,2.17
2022-08-09T09:19:36.962Z,3.53
2022-08-09T09:22:08.014Z,2.25
2022-08-09T09:24:43.986Z,3.80
2022-08-09T09:28:03.106Z,1.58
2022-08-09T09:30:26.159Z,2.83
2022-08-09T09:33:17.098Z,5.35
2022-08-09T09:36:02.653Z,5.07
2022-08-09T09:38:44.711Z,6.90
2022-08-09T09:41:33.427Z,3.55
2022-08-09T09:44:27.615Z,2.28
2022-08-09T09:47:08.558Z,3.10
2022-08-09T09:50:06.918Z,4.82
2022-08-09T09:52:35.772Z,3.90
2022-08-09T09:55:24.097Z,3.00
2022-08-09T09:58:19.137Z,2.85
2022-08-09T10:00:59.764Z,2.13
2022-08-09T10:03:44.385Z,2.53
2022-08-09T10:06:15.227Z,4.68
2022-08-09T10:08:54.975Z,1.77
2022-08-09T10:12:00.874Z,1.58
2022-08-09T10:14:30.394Z,4.40
2022-08-09T10:17:11.343Z,2.15
2022-08-09T10:19:52.927Z,1.98
2022-08-09T10:22:34.715Z,4.45
2022-08-09T10:25:11.994Z,7.18
2022-08-09T10:27:56.717Z,4.85
2022-08-09T10:34:07.987Z,3.30
2022-08-09T10:36:12.141Z,1.98
2022-08-09T10:38:56.442Z,1.50
2022-08-09T10:41:26.653Z,3.42
2022-08-09T10:44:01.796Z,2.80
2022-08-09T10:47:04.033Z,2.95
2022-08-09T10:49:54.378Z,2.75
2022-08-09T10:52:42.679Z,5.38
2022-08-09T10:55:24.284Z,3.30
2022-08-09T10:57:55.824Z,2.75
2022-08-09T11:00:51.029Z,2.08
2022-08-09T11:03:49.554Z,3.40
2022-08-09T11:06:25.472Z,3.92
2022-08-09T11:08:55.024Z,4.65
2022-08-09T11:12:12.323Z,4.68
2022-08-09T11:14:56.253Z,2.35
2022-08-09T11:18:02.653Z,1.63
2022-08-09T11:23:24.024Z,1.67
2022-08-09T11:26:00.371Z,1.67
2022-08-09T11:28:38.875Z,3.88
2022-08-09T11:31:48.836Z,2.08
2022-08-09T11:34:35.250Z,2.10
2022-08-09T11:37:07.341Z,3.53
2022-08-09T11:40:06.117Z,1.30
2022-08-09T11:42:49.351Z,1.63
2022-08-09T11:45:26.299Z,2.10
2022-08-09T11:48:26.718Z,1.35
2022-08-09T11:52:49.190Z,3.85
2022-08-09T11:54:14.445Z,1.98
2022-08-09T11:56:52.422Z,3.20
2022-08-09T11:59:33.786Z,2.75
2022-08-09T12:02:18.410Z,3.80
2022-08-09T12:04:59.069Z,3.90
2022-08-09T12:07:41.388Z,1.60
2022-08-09T12:10:14.407Z,1.90
2022-08-09T12:14:07.262Z,5.50
2022-08-09T12:15:52.927Z,3.08
2022-08-09T12:18:30.020Z,5.75
2022-08-09T12:21:02.802Z,2.63
2022-08-09T12:23:56.141Z,3.80
2022-08-09T12:26:26.254Z,3.88
2022-08-09T12:29:14.404Z,3.33
2022-08-09T12:32:02.005Z,2.83
2022-08-09T12:34:36.879Z,3.03
2022-08-09T12:37:09.537Z,3.80
2022-08-09T12:40:05.582Z,1.23
2022-08-09T12:42:36.135Z,1.88
2022-08-09T12:45:34.566Z,3.85
2022-08-09T12:48:31.031Z,2.15
2022-08-09T12:51:03.916Z,4.50
2022-08-09T12:53:38.861Z,4.78
2022-08-09T12:56:39.715Z,5.32
2022-08-09T12:59:11.768Z,3.28
2022-08-09T13:02:01.806Z,4.63
2022-08-09T13:04:38.628Z,1.90
2022-08-09T13:10:07.351Z,2.65
2022-08-09T13:13:10.171Z,5.72
2022-08-09T13:15:37.458Z,5.38
2022-08-09T13:18:17.270Z,4.68
2022-08-09T13:21:04.018Z,3.08
2022-08-09T13:24:15.778Z,3.85
2022-08-09T13:26:37.633Z,4.00
2022-08-09T13:29:09.146Z,3.33
2022-08-09T13:32:15.712Z,4.43
2022-08-09T13:34:46.176Z,3.15
2022-08-09T13:37:24.812Z,3.05
2022-08-09T13:41:54.160Z,3.10
2022-08-09T13:43:00.344Z,4.63
2022-08-09T13:46:42.699Z,4.10
2022-08-09T13:48:21.843Z,6.55
2022-08-09T13:50:53.182Z,2.92
2022-08-09T13:53:38.736Z,3.83
2022-08-09T13:56:12.640Z,3.30
2022-08-09T13:58:41.564Z,4.78
2022-08-09T14:01:13.476Z,1.70
2022-08-09T14:04:04.794Z,2.47
2022-08-09T14:09:21.724Z,6.82
2022-08-09T14:11:51.650Z,3.58
2022-08-09T14:14:27.009Z,3.33
2022-08-09T14:16:56.773Z,2.15
2022-08-09T14:19:30.268Z,3.65
2022-08-09T14:22:02.102Z,4.63
2022-08-09T14:24:33.713Z,3.88
2022-08-09T14:27:02.776Z,3.47
2022-08-09T14:30:34.687Z,2.15
2022-08-09T14:35:02.372Z,3.38
2022-08-09T14:37:41.341Z,3.13
2022-08-09T14:40:39.038Z,4.25
2022-08-09T14:43:12.592Z,3.22
2022-08-09T14:46:57.565Z,1.58
2022-08-09T14:48:37.912Z,2.13
2022-08-09T14:51:07.622Z,2.75
2022-08-09T14:53:46.789Z,3.60
2022-08-09T14:56:19.504Z,1.98
2022-08-09T14:58:50.535Z,4.03
2022-08-09T15:01:27.481Z,3.00
2022-08-09T15:03:55.981Z,3.53
2022-08-09T15:06:24.335Z,1.67
2022-08-09T15:08:56.685Z,2.40
2022-08-09T15:11:26.884Z,2.15
2022-08-09T15:14:04.427Z,3.65
2022-08-09T15:16:41.646Z,3.78
2022-08-09T15:19:18.137Z,4.18
2022-08-09T15:22:01.269Z,5.90
2022-08-09T15:24:30.969Z,5.35
2022-08-09T15:27:01.032Z,7.07
2022-08-09T15:30:58.947Z,6.75
2022-08-09T15:32:28.573Z,5.15
2022-08-09T15:35:01.239Z,3.65
2022-08-09T15:37:56.262Z,5.18
2022-08-09T15:40:31.962Z,6.40
2022-08-09T15:43:03.321Z,8.95
2022-08-09T15:46:07.491Z,4.50
2022-08-09T15:48:28.971Z,5.60
2022-08-09T15:51:01.949Z,4.15
2022-08-09T15:54:05.443Z,3.13
2022-08-09T15:56:30.795Z,7.38
2022-08-09T15:59:02.483Z,2.13
2022-08-09T16:01:35.525Z,4.43
2022-08-09T16:04:05.641Z,4.60
2022-08-09T16:07:10.512Z,5.75
2022-08-09T16:17:16.970Z,4.78
2022-08-09T16:20:27.577Z,5.13
2022-08-09T16:23:54.680Z,2.13
2022-08-09T16:29:50.465Z,3.25
2022-08-09T16:32:54.189Z,4.43
2022-08-09T16:42:26.190Z,3.65
2022-08-09T16:44:58.294Z,4.20
2022-08-09T16:48:39.726Z,15.25
2022-08-09T16:50:38.981Z,4.97
2022-08-09T16:53:09.058Z,2.80
2022-08-09T16:55:57.924Z,4.13
2022-08-09T16:58:28.945Z,3.80
2022-08-09T17:01:05.346Z,3.33
2022-08-09T17:03:36.634Z,4.35
2022-08-09T17:06:31.511Z,2.60
2022-08-09T17:09:00.184Z,3.55
2022-08-09T17:11:41.905Z,2.50
2022-08-09T17:14:25.684Z,4.60
2022-08-09T17:16:59.847Z,4.00
2022-08-09T17:20:06.182Z,4.75
2022-08-09T17:28:50.728Z,4.25
2022-08-09T17:31:25.620Z,5.90
2022-08-09T17:33:58.843Z,3.65
2022-08-09T17:37:24.524Z,3.78
2022-08-09T17:40:33.507Z,4.00
2022-08-09T17:43:33.954Z,3.95
2022-08-09T17:46:11.794Z,4.88
2022-08-09T17:48:51.618Z,4.72
2022-08-09T17:51:23.114Z,4.88
2022-08-09T17:53:56.237Z,3.92
2022-08-09T17:56:35.283Z,4.95
2022-08-09T17:59:11.457Z,5.65
2022-08-09T18:02:08.004Z,5.28
2022-08-09T18:04:30.928Z,6.57
2022-08-09T18:07:00.431Z,10.32
2022-08-09T18:09:40.090Z,10.00
2022-08-09T18:12:17.410Z,10.93
2022-08-09T18:14:53.380Z,4.25
2022-08-09T18:17:27.362Z,7.15
2022-08-09T18:20:59.879Z,5.15
2022-08-09T18:23:05.640Z,10.73
2022-08-09T18:25:53.574Z,7.88
2022-08-09T18:30:38.913Z,10.02
2022-08-09T18:31:24.818Z,24.60
2022-08-09T18:34:01.700Z,10.27
2022-08-09T18:36:32.378Z,6.38
2022-08-09T18:39:04.697Z,26.83
2022-08-09T18:41:35.535Z,25.20
2022-08-09T18:44:12.780Z,11.85
2022-08-09T18:46:50.146Z,10.55
2022-08-09T18:49:41.486Z,9.07
2022-08-09T18:52:16.042Z,17.50
2022-08-09T18:54:52.177Z,6.82
2022-08-09T18:57:23.119Z,9.73
2022-08-09T19:00:01.511Z,14.10
2022-08-09T19:02:33.696Z,9.50
2022-08-09T19:05:20.596Z,15.20
2022-08-09T19:08:04.426Z,17.30
2022-08-09T19:10:40.143Z,22.13
2022-08-09T19:13:17.048Z,19.35
2022-08-09T19:15:55.760Z,14.05
2022-08-09T19:18:34.315Z,10.65
2022-08-09T19:21:09.806Z,21.52
2022-08-09T19:24:31.528Z,9.48
2022-08-09T19:26:34.901Z,13.35
2022-08-09T19:29:09.744Z,7.53
2022-08-09T19:31:49.502Z,6.53
2022-08-09T19:34:22.043Z,8.32
2022-08-09T19:36:52.399Z,8.40
2022-08-09T19:39:43.280Z,8.80
2022-08-09T19:42:15.099Z,9.77
2022-08-09T19:44:50.701Z,9.20
2022-08-09T19:47:23.963Z,17.67
2022-08-09T19:50:06.536Z,8.48
2022-08-09T19:52:51.426Z,6.55
2022-08-09T19:55:25.533Z,7.82
2022-08-09T19:57:59.649Z,6.57
2022-08-09T20:00:29.043Z,8.57
2022-08-09T20:04:11.169Z,8.45
2022-08-09T20:05:50.796Z,6.10
2022-08-09T20:08:25.121Z,8.18
2022-08-09T20:11:04.728Z,10.10
2022-08-09T20:13:37.052Z,7.55
2022-08-09T20:16:32.767Z,6.65
2022-08-09T20:19:43.029Z,8.90
2022-08-09T20:21:56.952Z,9.27
2022-08-09T20:24:29.478Z,6.70
2022-08-09T20:27:08.473Z,9.02
2022-08-09T20:29:39.055Z,8.43
2022-08-09T20:32:31.301Z,7.90
2022-08-09T20:34:59.996Z,6.38
2022-08-09T20:38:19.386Z,10.55
2022-08-09T20:40:24.824Z,9.43
2022-08-09T20:43:00.087Z,8.13
2022-08-09T20:46:01.452Z,9.02
2022-08-09T20:48:30.921Z,10.98
2022-08-09T20:51:02.948Z,10.60
2022-08-09T20:53:37.567Z,20.55
2022-08-09T20:56:20.758Z,13.23
2022-08-09T20:58:54.579Z,15.00
2022-08-09T21:01:34.887Z,9.93
2022-08-09T21:05:55.291Z,21.45
2022-08-09T21:07:11.254Z,9.38
2022-08-09T21:09:45.957Z,13.10
2022-08-09T21:15:15.381Z,8.60
2022-08-09T21:18:20.928Z,8.40
2022-08-09T21:20:32.734Z,10.10
2022-08-09T21:23:09.305Z,9.77
2022-08-09T21:25:59.830Z,13.77
2022-08-09T21:28:34.173Z,8.82
2022-08-09T21:31:17.856Z,10.00
2022-08-09T21:33:51.683Z,10.60
2022-08-09T21:36:29.124Z,8.27
2022-08-09T21:39:00.196Z,8.75
2022-08-09T21:42:04.302Z,9.75
2022-08-09T21:44:33.238Z,10.90
2022-08-09T21:47:05.012Z,7.88
2022-08-09T21:49:40.032Z,9.52
2022-08-09T21:52:14.861Z,8.35
2022-08-09T21:54:49.488Z,8.32
2022-08-09T21:57:37.391Z,10.80
2022-08-09T22:00:12.909Z,10.73
2022-08-09T22:02:42.902Z,10.50
2022-08-09T22:05:22.393Z,7.03
2022-08-09T22:07:53.086Z,8.65
2022-08-09T22:10:24.170Z,8.27
2022-08-09T22:12:53.028Z,10.57
2022-08-09T22:15:23.329Z,7.68
2022-08-09T22:18:03.819Z,9.30
2022-08-09T22:20:32.397Z,8.50
2022-08-09T22:23:00.752Z,8.95
2022-08-09T22:26:06.548Z,6.85
2022-08-09T22:28:29.457Z,11.65
2022-08-09T22:31:00.777Z,7.10
2022-08-09T22:33:37.677Z,6.13
2022-08-09T22:36:19.122Z,10.18
2022-08-09T22:38:48.793Z,6.95
2022-08-09T22:41:19.422Z,5.85
2022-08-09T22:44:03.040Z,6.68
2022-08-09T22:48:11.472Z,6.88
2022-08-09T22:49:21.902Z,8.23
2022-08-09T22:51:57.240Z,8.68
2022-08-09T22:54:27.569Z,6.55
2022-08-09T22:56:58.644Z,6.93
2022-08-09T22:59:57.459Z,6.88
2022-08-09T23:02:20.452Z,6.72
2022-08-09T23:04:53.312Z,6.65
2022-08-09T23:08:21.227Z,8.85
2022-08-09T23:10:30.076Z,6.43
2022-08-09T23:13:00.477Z,6.20
2022-08-09T23:15:30.271Z,8.18
2022-08-09T23:17:59.060Z,6.30
2022-08-09T23:20:28.909Z,6.53
2022-08-09T23:22:57.545Z,6.07
2022-08-09T23:25:26.044Z,5.35
2022-08-09T23:28:14.483Z,5.80
2022-08-09T23:30:51.616Z,5.70
2022-08-09T23:33:21.386Z,4.40
2022-08-09T23:36:05.793Z,6.68
2022-08-09T23:38:49.037Z,6.55
2022-08-09T23:41:27.701Z,5.65
2022-08-09T23:43:58.267Z,4.82
2022-08-09T23:46:28.551Z,6.10
2022-08-09T23:48:56.913Z,5.22
2022-08-09T23:51:25.526Z,5.13
2022-08-09T23:54:02.555Z,10.65
2022-08-09T23:56:53.296Z,8.23
2022-08-09T23:59:21.358Z,6.68
